Terminal Aerodrome Forecast
Issued by NWS Spokane, WA

Home | Current Version | Previous Version | Text Only | Print | Product List | Glossary On
Versions: 1 2 3 4 5 6 7 8 9 10 11 12 13 14 15 16 17 18 19 20 21 22
000
FTUS46 KOTX 010520
TAFGEG
TAF
KGEG 010520Z 0106/0206 25007KT P6SM FEW080
     FM010900 21006KT P6SM SKC
     FM011200 19007KT P6SM SCT015
     FM011800 21011KT P6SM FEW150
     FM012100 22014G22KT P6SM FEW150
     FM020200 22010KT P6SM SKC=

USA.gov is the U.S. government's official web portal to all federal, state and local government web resources and services.